Time;durP1;ratioP1;P1;durP2;ratioP2;P2;SDS_P1;SDS_P2;PMS_P1;PMS_P2;Temp;Humidity;BMP_temperature;BMP_pressure;BME280_temperature;BME280_humidity;BME280_pressure;Samples;Min_cycle;Max_cycle;Signal;HPM_P1;HPM_P2
2021/10/13 00:02:11;;;;;;;6.80;2.75;;;;;;;2.98;90.50;100835.91;5003545;28;20038;-81
2021/10/13 00:04:36;;;;;;;5.35;2.50;;;;;;;2.93;89.38;100847.91;5003937;28;20041;-81
2021/10/13 00:07:02;;;;;;;8.25;2.38;;;;;;;2.87;89.64;100842.53;5019148;28;20037;-82
2021/10/13 00:09:27;;;;;;;8.35;2.97;;;;;;;2.85;90.58;100839.88;5001396;28;20034;-82
2021/10/13 00:11:53;;;;;;;5.47;2.58;;;;;;;2.88;90.61;100840.81;5005785;28;20049;-83
2021/10/13 00:14:18;;;;;;;6.53;2.78;;;;;;;2.82;90.27;100846.72;5001565;28;20129;-82
2021/10/13 00:16:52;;;;;;;5.20;2.50;;;;;;;2.83;90.71;100845.91;5019952;28;20065;-83
2021/10/13 00:19:18;;;;;;;4.30;2.33;;;;;;;2.79;90.24;100841.44;5016657;28;20034;-82
2021/10/13 00:21:43;;;;;;;5.53;2.22;;;;;;;2.79;90.71;100841.44;5001444;28;20030;-83
2021/10/13 00:24:08;;;;;;;4.35;2.25;;;;;;;2.79;91.01;100844.03;5004670;28;20068;-82
2021/10/13 00:26:34;;;;;;;6.40;2.30;;;;;;;2.81;90.78;100832.81;5002396;28;20038;-82
2021/10/13 00:28:59;;;;;;;5.97;2.42;;;;;;;2.78;90.74;100843.16;5020031;28;20089;-82
2021/10/13 00:31:24;;;;;;;7.18;2.33;;;;;;;2.76;90.66;100843.94;5003455;28;20029;-82
2021/10/13 00:33:50;;;;;;;7.55;2.10;;;;;;;2.78;90.58;100847.50;5003519;28;20034;-82
2021/10/13 00:36:15;;;;;;;6.22;2.40;;;;;;;2.80;90.86;100845.78;5004311;28;20060;-82
2021/10/13 00:38:40;;;;;;;4.43;2.05;;;;;;;2.84;91.29;100847.66;5002874;28;20054;-82
2021/10/13 00:41:06;;;;;;;8.02;2.67;;;;;;;2.93;91.46;100857.47;5005116;28;20447;-82
2021/10/13 00:43:31;;;;;;;6.10;2.28;;;;;;;3.01;91.75;100846.47;5002438;28;20133;-82
2021/10/13 00:45:57;;;;;;;7.80;2.85;;;;;;;3.08;91.72;100845.78;5021167;28;20065;-82
2021/10/13 00:48:22;;;;;;;6.00;2.60;;;;;;;3.14;91.56;100852.00;5001977;28;20041;-82
2021/10/13 00:50:49;;;;;;;4.88;2.05;;;;;;;3.16;91.58;100850.34;5005379;28;20037;-82
2021/10/13 00:53:16;;;;;;;7.32;2.70;;;;;;;3.18;91.00;100848.66;5002323;28;20528;-82
2021/10/13 00:55:41;;;;;;;5.45;2.08;;;;;;;3.18;91.21;100848.66;5005113;28;20038;-82
2021/10/13 00:58:06;;;;;;;5.25;2.15;;;;;;;3.15;91.43;100854.66;5002756;28;20150;-82
2021/10/13 01:00:32;;;;;;;7.38;2.58;;;;;;;3.17;91.22;100854.69;5004040;28;20038;-82
2021/10/13 01:03:18;;;;;;;6.95;2.30;;;;;;;3.15;91.16;100859.00;5003402;28;20030;-82
2021/10/13 01:06:13;;;;;;;6.80;2.45;;;;;;;3.17;91.20;100860.81;5000955;28;20045;-82
2021/10/13 01:08:41;;;;;;;6.32;2.10;;;;;;;3.17;91.29;100859.91;5002281;28;20042;-82
2021/10/13 01:11:16;;;;;;;8.15;2.40;;;;;;;3.20;91.19;100852.22;5005349;28;20038;-82
2021/10/13 01:13:56;;;;;;;6.45;2.78;;;;;;;3.18;91.14;100853.88;5003093;28;20045;-82
2021/10/13 01:16:43;;;;;;;5.97;2.00;;;;;;;3.15;91.32;100859.00;5012838;28;20038;-82
2021/10/13 01:19:33;;;;;;;4.55;2.05;;;;;;;3.07;91.06;100864.88;5005844;28;20463;-81
2021/10/13 01:22:20;;;;;;;4.72;1.67;;;;;;;3.00;91.39;100867.25;5008980;28;20190;-81
2021/10/13 01:25:10;;;;;;;6.28;2.13;;;;;;;2.93;91.66;100868.78;5019682;28;20068;-82
2021/10/13 01:27:59;;;;;;;5.53;1.98;;;;;;;2.90;91.96;100867.81;5006529;28;20042;-81
2021/10/13 01:30:27;;;;;;;5.15;2.10;;;;;;;2.89;91.87;100871.28;5006900;28;20481;-82
2021/10/13 01:32:59;;;;;;;5.65;2.20;;;;;;;2.90;92.29;100871.31;5008861;28;20034;-81
2021/10/13 01:35:27;;;;;;;4.72;2.15;;;;;;;2.84;92.71;100868.53;5007529;28;20050;-82
2021/10/13 01:37:55;;;;;;;6.35;2.70;;;;;;;2.85;92.04;100868.53;5022928;28;20061;-81
2021/10/13 01:40:25;;;;;;;6.50;2.42;;;;;;;2.82;92.32;100872.78;5008845;28;20104;-81
2021/10/13 01:42:53;;;;;;;7.63;2.60;;;;;;;2.83;92.08;100877.19;5007160;28;20492;-82
2021/10/13 01:45:19;;;;;;;6.28;2.20;;;;;;;2.79;92.58;100872.72;5007687;28;20054;-82
2021/10/13 01:47:47;;;;;;;4.90;2.08;;;;;;;2.80;92.87;100880.59;5023012;28;20038;-81
2021/10/13 01:50:13;;;;;;;7.10;2.10;;;;;;;2.80;92.41;100877.06;5010236;28;20038;-82
2021/10/13 01:52:40;;;;;;;7.32;1.88;;;;;;;2.80;93.00;100887.50;4985324;28;20035;-82
2021/10/13 01:55:07;;;;;;;4.07;1.98;;;;;;;2.82;92.52;100886.69;5009287;28;20054;-82
2021/10/13 01:57:33;;;;;;;7.35;2.33;;;;;;;2.77;92.92;100893.50;5011863;28;20042;-82
2021/10/13 02:00:06;;;;;;;4.68;2.00;;;;;;;2.78;93.10;100890.06;5008471;28;20042;-82
2021/10/13 02:02:33;;;;;;;4.38;1.92;;;;;;;2.77;93.28;100900.44;5005761;28;20064;-82
2021/10/13 02:05:00;;;;;;;6.05;2.72;;;;;;;2.74;92.75;100903.84;5009213;28;20033;-82
2021/10/13 02:07:27;;;;;;;5.60;2.50;;;;;;;2.75;92.73;100913.44;5007424;28;20029;-82
2021/10/13 02:09:57;;;;;;;7.43;2.80;;;;;;;2.73;92.98;100917.72;5020578;28;20513;-82
2021/10/13 02:12:24;;;;;;;4.35;2.03;;;;;;;2.70;92.88;100916.72;5007225;28;20049;-82
2021/10/13 02:14:52;;;;;;;5.07;2.05;;;;;;;2.69;92.73;100914.94;5003946;28;20098;-82
2021/10/13 02:17:18;;;;;;;7.25;2.30;;;;;;;2.68;92.79;100921.00;5022914;28;20037;-82
2021/10/13 02:19:45;;;;;;;7.20;3.08;;;;;;;2.64;92.76;100918.28;5004703;28;20396;-82
2021/10/13 02:22:11;;;;;;;6.72;2.60;;;;;;;2.62;92.92;100925.19;5023365;28;20615;-82
2021/10/13 02:24:44;;;;;;;5.43;2.28;;;;;;;2.60;92.73;100915.56;5023528;28;20065;-81
2021/10/13 02:27:13;;;;;;;6.60;2.35;;;;;;;2.58;93.01;100928.53;5004723;28;20050;-81
2021/10/13 02:29:38;;;;;;;6.63;2.67;;;;;;;2.56;92.90;100929.31;5006334;28;20044;-82
2021/10/13 02:32:06;;;;;;;5.72;2.40;;;;;;;2.54;92.94;100926.66;5003614;28;20042;-82
2021/10/13 02:34:32;;;;;;;6.35;2.70;;;;;;;2.51;93.24;100926.53;5006075;28;20036;-81
2021/10/13 02:36:58;;;;;;;7.72;2.97;;;;;;;2.55;93.19;100925.81;5004698;28;20030;-81
2021/10/13 02:39:23;;;;;;;7.55;3.20;;;;;;;2.54;92.79;100933.56;5008409;28;20567;-82
2021/10/13 02:41:49;;;;;;;6.47;3.00;;;;;;;2.54;93.23;100930.97;5002862;28;20045;-81
2021/10/13 02:44:14;;;;;;;5.65;2.60;;;;;;;2.51;93.53;100934.34;5007231;28;20037;-81
2021/10/13 02:46:53;;;;;;;4.45;2.20;;;;;;;2.51;93.47;100930.88;5020979;28;20049;-82
2021/10/13 02:49:30;;;;;;;7.82;2.40;;;;;;;2.50;93.80;100943.03;5022887;28;20115;-81
2021/10/13 02:52:12;;;;;;;6.80;2.60;;;;;;;2.50;93.71;100945.63;5005728;28;20088;-82
2021/10/13 02:54:55;;;;;;;4.93;2.88;;;;;;;2.48;94.27;100952.50;5019203;28;20050;-82
2021/10/13 02:57:22;;;;;;;5.55;2.20;;;;;;;2.52;94.16;100953.50;5005767;28;20048;-82
2021/10/13 02:59:51;;;;;;;5.25;2.60;;;;;;;2.51;94.08;100957.81;4987306;28;20054;-82
2021/10/13 03:02:23;;;;;;;6.55;2.78;;;;;;;2.50;94.35;100961.25;5005501;28;20030;-82
2021/10/13 03:04:52;;;;;;;6.97;2.90;;;;;;;2.51;94.30;100957.81;5020725;28;20038;-82
2021/10/13 03:07:22;;;;;;;5.18;2.60;;;;;;;2.53;94.30;100966.56;5003732;28;20038;-82
2021/10/13 03:09:59;;;;;;;8.40;3.08;;;;;;;2.51;94.36;100956.94;5021286;28;20088;-82
2021/10/13 03:12:29;;;;;;;8.10;3.47;;;;;;;2.51;93.70;100969.97;5022790;28;20042;-82
2021/10/13 03:14:56;;;;;;;9.07;2.90;;;;;;;2.50;94.44;100966.47;5012240;28;20034;-81
2021/10/13 03:17:23;;;;;;;10.30;3.33;;;;;;;2.51;94.00;100970.84;5022820;28;20038;-82
2021/10/13 03:19:49;;;;;;;7.30;2.75;;;;;;;2.49;94.12;100967.31;5009498;28;20041;-82
2021/10/13 03:22:16;;;;;;;7.55;3.25;;;;;;;2.50;94.33;100982.09;5011781;28;20022;-82
2021/10/13 03:24:42;;;;;;;6.90;2.90;;;;;;;2.51;93.91;100980.38;5014238;28;20484;-82
2021/10/13 03:27:07;;;;;;;7.45;3.03;;;;;;;2.51;94.30;100983.88;5005346;28;20049;-82
2021/10/13 03:29:33;;;;;;;9.35;3.47;;;;;;;2.52;93.91;100979.56;4988954;28;20452;-82
2021/10/13 03:31:58;;;;;;;6.63;2.90;;;;;;;2.49;93.88;100980.34;5003533;28;20128;-82
2021/10/13 03:34:23;;;;;;;10.02;3.00;;;;;;;2.53;93.85;100989.13;5005699;28;20034;-82
2021/10/13 03:36:50;;;;;;;10.10;3.50;;;;;;;2.51;93.84;100989.06;5007839;28;20033;-81
2021/10/13 03:39:17;;;;;;;7.63;3.60;;;;;;;2.49;94.10;100985.56;5014170;28;20053;-82
2021/10/13 03:41:44;;;;;;;8.80;4.07;;;;;;;2.52;94.18;100993.47;5016320;28;20038;-82
2021/10/13 03:44:09;;;;;;;9.27;4.05;;;;;;;2.51;94.06;100993.41;5007203;28;20053;-82
2021/10/13 03:46:37;;;;;;;8.65;3.60;;;;;;;2.51;94.18;101001.22;5021435;28;20413;-82
2021/10/13 03:49:02;;;;;;;9.63;3.78;;;;;;;2.51;94.20;100999.50;5003501;28;20049;-82
2021/10/13 03:51:28;;;;;;;8.48;3.70;;;;;;;2.54;94.26;101010.03;5011230;28;20278;-82
2021/10/13 03:53:53;;;;;;;7.88;3.20;;;;;;;2.54;94.06;101012.66;4994805;28;20390;-83
2021/10/13 03:56:19;;;;;;;6.47;3.00;;;;;;;2.55;94.50;101017.03;5006038;28;20069;-83
2021/10/13 03:58:45;;;;;;;6.15;3.38;;;;;;;2.58;93.99;101017.13;5005987;28;20045;-82
2021/10/13 04:01:11;;;;;;;7.53;3.58;;;;;;;2.57;94.38;101019.69;5018370;28;20382;-82
2021/10/13 04:03:37;;;;;;;6.25;3.15;;;;;;;2.59;94.36;101018.00;5010023;28;20025;-82
2021/10/13 04:06:02;;;;;;;11.13;3.80;;;;;;;2.56;94.79;101016.16;5011431;28;20105;-82
2021/10/13 04:08:28;;;;;;;7.43;3.17;;;;;;;2.58;94.59;101024.06;5002624;28;20165;-82
2021/10/13 04:10:53;;;;;;;6.80;3.10;;;;;;;2.59;94.60;101029.34;5001986;28;20511;-82
2021/10/13 04:13:19;;;;;;;7.13;3.72;;;;;;;2.61;94.78;101031.97;5006495;28;20029;-82
2021/10/13 04:15:44;;;;;;;6.28;3.03;;;;;;;2.60;94.79;101033.69;5011095;28;20108;-81
2021/10/13 04:18:09;;;;;;;6.57;3.42;;;;;;;2.57;94.85;101031.00;5002825;28;20034;-82
2021/10/13 04:20:35;;;;;;;7.25;2.97;;;;;;;2.58;94.90;101032.75;5004459;28;20037;-82
2021/10/13 04:23:00;;;;;;;7.45;3.92;;;;;;;2.60;94.86;101033.69;5016997;28;20034;-82
2021/10/13 04:25:26;;;;;;;7.10;3.38;;;;;;;2.58;94.64;101032.75;5021951;28;20484;-81
2021/10/13 04:27:51;;;;;;;6.88;3.13;;;;;;;2.55;94.60;101037.88;5007166;28;20124;-80
2021/10/13 04:30:17;;;;;;;7.50;3.70;;;;;;;2.55;94.90;101026.56;5011193;28;20041;-81
2021/10/13 04:32:43;;;;;;;8.35;3.45;;;;;;;2.55;95.08;101031.78;5011683;28;20034;-80
2021/10/13 04:35:10;;;;;;;7.18;3.13;;;;;;;2.54;94.89;101030.91;5016111;28;20037;-81
2021/10/13 04:37:35;;;;;;;8.52;3.47;;;;;;;2.52;95.58;101029.06;5018910;28;20113;-81
2021/10/13 04:40:01;;;;;;;6.45;3.65;;;;;;;2.55;95.31;101027.44;5027955;28;20607;-82
2021/10/13 04:42:26;;;;;;;8.80;3.40;;;;;;;2.53;95.23;101026.50;5012709;28;20029;-82
2021/10/13 04:44:52;;;;;;;5.97;3.10;;;;;;;2.50;95.36;101033.34;5013919;28;20451;-81
2021/10/13 04:47:17;;;;;;;8.73;3.92;;;;;;;2.47;95.14;101028.91;5022414;28;20101;-81
2021/10/13 04:49:42;;;;;;;6.65;3.55;;;;;;;2.46;95.28;101037.53;5029374;28;20443;-80
2021/10/13 04:52:08;;;;;;;6.10;3.13;;;;;;;2.48;95.27;101046.28;5013216;28;20432;-80
2021/10/13 04:54:33;;;;;;;7.88;3.92;;;;;;;2.48;95.42;101040.19;5017302;28;20488;-82
2021/10/13 04:56:58;;;;;;;5.78;2.92;;;;;;;2.50;95.64;101049.84;5038884;28;20068;-80
2021/10/13 04:59:24;;;;;;;8.20;4.75;;;;;;;2.51;95.81;101049.00;5021393;28;20034;-80
2021/10/13 05:01:49;;;;;;;8.15;4.53;;;;;;;2.55;95.31;101050.00;5026390;28;20037;-81
2021/10/13 05:04:15;;;;;;;8.68;4.28;;;;;;;2.60;95.73;101045.84;5039959;28;20063;-80
2021/10/13 05:06:40;;;;;;;7.72;4.40;;;;;;;2.69;96.19;101051.34;5023258;28;20068;-81
2021/10/13 05:09:07;;;;;;;7.40;4.05;;;;;;;2.81;96.07;101057.00;5037414;28;20092;-81
2021/10/13 05:11:32;;;;;;;8.50;4.05;;;;;;;2.93;95.82;101048.69;5013758;28;20042;-80
2021/10/13 05:13:57;;;;;;;6.20;4.00;;;;;;;3.06;95.90;101057.78;5030293;28;20049;-81
2021/10/13 05:16:22;;;;;;;7.95;3.83;;;;;;;3.12;95.11;101052.81;5021871;28;20149;-80
2021/10/13 05:18:48;;;;;;;6.72;3.70;;;;;;;3.19;95.58;101059.97;5020265;28;20058;-80
2021/10/13 05:21:13;;;;;;;6.50;3.20;;;;;;;3.25;95.43;101065.41;5020711;28;20036;-81
2021/10/13 05:23:38;;;;;;;8.85;3.42;;;;;;;3.30;95.05;101065.53;5020538;28;20408;-80
2021/10/13 05:26:04;;;;;;;6.70;3.72;;;;;;;3.42;94.58;101068.53;5024531;28;20511;-81
2021/10/13 05:28:29;;;;;;;6.70;3.55;;;;;;;3.50;94.21;101064.44;5022700;28;20045;-81
2021/10/13 05:30:54;;;;;;;9.77;3.80;;;;;;;3.57;94.31;101075.09;5037900;28;20340;-81
2021/10/13 05:33:20;;;;;;;7.13;3.40;;;;;;;3.67;93.92;101079.75;5023712;28;20041;-81
2021/10/13 05:35:45;;;;;;;6.32;3.20;;;;;;;3.66;93.65;101088.41;5021308;28;20037;-81
2021/10/13 05:38:10;;;;;;;8.35;4.05;;;;;;;3.71;93.08;101086.81;5015083;28;20041;-81
2021/10/13 05:40:36;;;;;;;8.13;3.22;;;;;;;3.70;92.77;101088.53;5030297;28;20045;-81
2021/10/13 05:43:01;;;;;;;6.18;3.10;;;;;;;3.73;92.55;101087.75;5016559;28;20138;-81
2021/10/13 05:45:26;;;;;;;6.72;3.97;;;;;;;3.74;92.73;101089.50;5013766;28;20080;-81
2021/10/13 05:47:52;;;;;;;9.10;3.55;;;;;;;3.79;91.98;101093.16;5032518;28;20065;-81
2021/10/13 05:50:17;;;;;;;6.93;3.80;;;;;;;3.79;91.87;101092.28;5029575;28;20096;-81
2021/10/13 05:52:42;;;;;;;9.82;4.93;;;;;;;3.78;92.07;101096.63;5017719;28;20031;-81
2021/10/13 05:55:08;;;;;;;7.45;3.13;;;;;;;3.74;91.79;101099.97;5032160;28;20042;-81
2021/10/13 05:57:34;;;;;;;5.20;2.97;;;;;;;3.68;91.48;101103.28;5014316;28;20042;-81
2021/10/13 05:59:59;;;;;;;6.38;3.10;;;;;;;3.67;91.98;101111.94;5015992;28;20042;-81
2021/10/13 06:02:25;;;;;;;6.50;3.50;;;;;;;3.62;91.84;101110.91;5014045;28;20049;-81
2021/10/13 06:04:51;;;;;;;6.85;3.83;;;;;;;3.57;92.10;101109.00;5014523;28;20179;-81
2021/10/13 06:07:16;;;;;;;8.70;3.17;;;;;;;3.62;91.85;101110.03;5030385;28;20046;-80
2021/10/13 06:09:41;;;;;;;9.18;4.75;;;;;;;3.68;91.91;101112.84;5017455;28;20034;-81
2021/10/13 06:12:07;;;;;;;10.00;4.90;;;;;;;3.80;91.51;101108.00;5016247;28;20029;-81
2021/10/13 06:14:32;;;;;;;9.75;4.30;;;;;;;3.93;91.73;101115.38;5012176;28;20062;-81
2021/10/13 06:16:58;;;;;;;9.27;4.05;;;;;;;3.97;91.47;101116.31;5016210;28;20061;-80
2021/10/13 06:19:23;;;;;;;9.48;4.97;;;;;;;4.11;90.65;101124.56;5016246;28;20030;-81
2021/10/13 06:21:48;;;;;;;10.63;4.03;;;;;;;4.26;90.88;101125.03;5014209;28;20094;-81
2021/10/13 06:24:14;;;;;;;6.63;3.63;;;;;;;4.38;90.40;101129.72;5014795;28;20038;-81
2021/10/13 06:26:39;;;;;;;7.00;4.38;;;;;;;4.48;90.63;101128.25;5028714;28;20033;-81
2021/10/13 06:29:05;;;;;;;8.57;4.00;;;;;;;4.51;89.33;101142.28;5014205;28;20130;-81
2021/10/13 06:31:31;;;;;;;8.65;3.83;;;;;;;4.54;89.42;101147.59;5011822;28;20139;-80
2021/10/13 06:33:56;;;;;;;9.13;4.43;;;;;;;4.61;89.16;101146.03;5013292;28;20034;-81
2021/10/13 06:36:22;;;;;;;11.35;5.28;;;;;;;4.60;88.56;101144.28;5029896;28;20068;-81
2021/10/13 06:38:47;;;;;;;7.93;4.30;;;;;;;4.63;88.53;101146.09;5011850;28;20044;-81
2021/10/13 06:41:13;;;;;;;10.40;6.53;;;;;;;4.70;88.38;101155.88;5030371;28;20542;-81
2021/10/13 06:43:38;;;;;;;10.50;5.60;;;;;;;4.73;88.09;101151.63;5012391;28;20045;-81
2021/10/13 06:46:05;;;;;;;10.15;5.30;;;;;;;4.84;88.20;101163.25;5015592;28;20124;-81
2021/10/13 06:48:30;;;;;;;8.40;5.85;;;;;;;4.82;88.09;101166.66;5010131;28;20061;-81
2021/10/13 06:50:55;;;;;;;8.52;4.93;;;;;;;4.94;87.86;101171.34;5026894;28;20112;-81
2021/10/13 06:53:21;;;;;;;9.57;6.05;;;;;;;4.99;87.94;101177.59;5013610;28;20037;-81
2021/10/13 06:55:46;;;;;;;8.70;5.90;;;;;;;5.14;87.60;101180.63;5012440;28;20038;-81
2021/10/13 06:58:12;;;;;;;12.68;6.93;;;;;;;5.22;87.28;101181.72;5012809;28;20038;-81
2021/10/13 07:00:37;;;;;;;9.98;7.10;;;;;;;5.37;87.31;101189.06;5012141;28;20045;-80
2021/10/13 07:03:03;;;;;;;10.18;7.78;;;;;;;5.46;86.83;101196.28;5012544;28;20034;-81
2021/10/13 07:05:28;;;;;;;15.10;8.32;;;;;;;5.53;86.61;101198.19;5013892;28;20069;-81
2021/10/13 07:07:53;;;;;;;13.35;7.97;;;;;;;5.58;86.53;101193.06;5011435;28;20089;-81
2021/10/13 07:10:20;;;;;;;11.27;8.07;;;;;;;5.64;85.97;101201.97;4995983;28;20034;-81
2021/10/13 07:12:46;;;;;;;11.43;8.30;;;;;;;5.67;86.33;101206.38;5010536;28;20035;-81
2021/10/13 07:15:12;;;;;;;14.85;8.98;;;;;;;5.75;86.08;101198.72;5017354;28;20063;-81
2021/10/13 07:17:38;;;;;;;16.65;10.52;;;;;;;5.78;85.71;101198.78;5009825;28;20034;-81
2021/10/13 07:20:06;;;;;;;11.23;9.05;;;;;;;5.84;85.62;101204.16;5009201;28;20030;-80
2021/10/13 07:22:32;;;;;;;15.18;10.05;;;;;;;5.89;85.52;101206.06;5015491;28;20034;-81
2021/10/13 07:24:58;;;;;;;13.63;10.52;;;;;;;5.92;85.82;101207.84;5020949;28;20033;-81
2021/10/13 07:27:25;;;;;;;18.30;12.20;;;;;;;6.01;85.83;101205.50;5009214;28;20050;-81
2021/10/13 07:29:58;;;;;;;16.85;11.73;;;;;;;6.10;85.80;101208.34;5027552;28;20026;-82
2021/10/13 07:32:25;;;;;;;15.25;11.75;;;;;;;5.94;85.14;101206.19;5012819;28;20443;-81
2021/10/13 07:34:51;;;;;;;15.43;11.82;;;;;;;5.82;86.23;101216.38;5013976;28;20034;-80
2021/10/13 07:37:17;;;;;;;15.52;10.85;;;;;;;5.73;87.15;101211.78;5017985;28;20160;-80
2021/10/13 07:39:42;;;;;;;20.40;13.43;;;;;;;5.83;86.38;101213.75;5002585;28;20045;-80
2021/10/13 07:42:07;;;;;;;18.83;11.98;;;;;;;5.91;86.24;101206.97;5016976;28;20037;-80
2021/10/13 07:44:33;;;;;;;17.15;11.57;;;;;;;5.94;86.13;101211.44;5013845;28;20480;-81
2021/10/13 07:46:58;;;;;;;17.05;11.63;;;;;;;5.83;86.46;101218.13;5015453;28;20065;-80
2021/10/13 07:49:23;;;;;;;19.23;12.10;;;;;;;5.72;86.85;101223.09;5012384;28;20034;-81
2021/10/13 07:51:49;;;;;;;18.67;12.52;;;;;;;5.74;86.82;101233.59;5011815;28;20038;-81
2021/10/13 07:54:14;;;;;;;20.17;10.52;;;;;;;5.77;87.06;101239.81;5009674;28;20038;-80
2021/10/13 07:56:40;;;;;;;17.83;11.50;;;;;;;5.81;87.60;101239.03;5012186;28;20042;-81
2021/10/13 07:59:05;;;;;;;20.27;12.23;;;;;;;5.83;87.39;101239.09;5009218;28;20038;-81
2021/10/13 08:01:31;;;;;;;18.95;10.63;;;;;;;5.68;87.68;101236.97;5014892;28;20496;-81
2021/10/13 08:03:56;;;;;;;24.30;13.35;;;;;;;5.78;88.33;101240.69;5010938;28;20042;-79
2021/10/13 08:06:21;;;;;;;24.60;14.95;;;;;;;5.70;88.27;101243.13;5009254;28;20052;-81
2021/10/13 08:08:46;;;;;;;26.58;14.20;;;;;;;5.77;87.82;101249.41;5011155;28;20070;-81
2021/10/13 08:11:12;;;;;;;40.05;12.05;;;;;;;5.87;87.39;101246.19;5015122;28;20108;-80
2021/10/13 08:13:37;;;;;;;25.63;13.13;;;;;;;5.89;88.21;101254.94;5009389;28;20038;-80
2021/10/13 08:16:03;;;;;;;19.50;13.13;;;;;;;6.05;88.09;101256.22;5014458;28;20030;-81
2021/10/13 08:18:29;;;;;;;19.40;12.98;;;;;;;6.20;87.75;101247.84;5012320;28;20109;-80
2021/10/13 08:20:55;;;;;;;20.60;14.75;;;;;;;6.43;87.75;101249.25;5008965;28;20041;-81
2021/10/13 08:23:21;;;;;;;17.42;13.27;;;;;;;6.66;87.70;101248.88;5008587;28;20042;-80
2021/10/13 08:25:48;;;;;;;18.27;13.85;;;;;;;6.65;87.06;101249.72;5026915;28;20040;-81
2021/10/13 08:28:13;;;;;;;20.55;15.00;;;;;;;6.57;87.44;101255.66;5006944;28;20073;-81
2021/10/13 08:30:38;;;;;;;22.60;15.98;;;;;;;6.68;87.60;101260.28;5010827;28;20060;-81
2021/10/13 08:33:04;;;;;;;20.27;15.00;;;;;;;6.81;87.25;101259.66;5007377;28;20038;-80
2021/10/13 08:35:29;;;;;;;19.75;13.60;;;;;;;6.90;86.73;101264.25;5011217;28;20056;-80
2021/10/13 08:37:54;;;;;;;19.17;14.98;;;;;;;6.87;86.15;101265.06;5007964;28;20030;-80
2021/10/13 08:40:20;;;;;;;18.55;14.02;;;;;;;6.91;86.52;101259.00;5009321;28;20042;-80
2021/10/13 08:42:57;;;;;;;24.23;13.88;;;;;;;7.05;87.13;101266.28;5007811;28;20719;-81
2021/10/13 08:45:24;;;;;;;22.77;13.57;;;;;;;7.04;86.54;101262.78;5026022;28;20507;-80
2021/10/13 08:47:49;;;;;;;15.90;12.20;;;;;;;7.08;86.72;101263.75;5005534;28;20082;-81
2021/10/13 08:50:15;;;;;;;17.77;12.70;;;;;;;7.10;87.26;101259.38;5009566;28;20045;-80
2021/10/13 08:52:40;;;;;;;18.83;13.32;;;;;;;7.28;86.28;101262.34;5006411;28;20030;-80
2021/10/13 08:55:07;;;;;;;16.50;11.88;;;;;;;7.60;85.67;101265.59;5024712;28;20116;-81
2021/10/13 08:57:32;;;;;;;17.10;11.45;;;;;;;7.67;84.38;101264.81;5009131;28;20049;-79
2021/10/13 08:59:58;;;;;;;16.73;11.25;;;;;;;7.63;82.66;101251.63;5009211;28;20030;-81
2021/10/13 09:02:36;;;;;;;16.30;11.18;;;;;;;7.61;82.82;101255.97;5009307;28;20030;-81
2021/10/13 09:05:09;;;;;;;15.27;10.57;;;;;;;7.60;81.23;101257.72;5009688;28;20046;-81
2021/10/13 09:07:36;;;;;;;14.82;10.50;;;;;;;7.57;81.19;101262.91;5006224;28;20050;-80
2021/10/13 09:10:02;;;;;;;17.65;12.15;;;;;;;7.53;82.21;101254.94;5010267;28;20070;-81
2021/10/13 09:12:36;;;;;;;14.77;11.27;;;;;;;7.71;81.72;101260.53;5008098;28;20185;-81
2021/10/13 09:15:13;;;;;;;15.90;11.60;;;;;;;8.08;81.32;101256.75;5006560;28;20142;-81
2021/10/13 09:17:52;;;;;;;14.70;10.57;;;;;;;8.28;79.53;101258.81;5024637;28;20049;-81
2021/10/13 09:20:23;;;;;;;13.32;10.23;;;;;;;8.68;80.68;101255.00;5013436;28;20038;-81
2021/10/13 09:23:15;;;;;;;13.95;10.23;;;;;;;8.57;77.24;101261.88;5034896;28;20038;-81
2021/10/13 09:25:42;;;;;;;14.38;9.85;;;;;;;8.22;79.03;101271.84;5015867;28;20038;-82
2021/10/13 09:28:08;;;;;;;12.98;9.85;;;;;;;8.21;78.33;101268.34;5015053;28;20645;-82
2021/10/13 09:30:39;;;;;;;15.98;10.27;;;;;;;8.34;79.24;101275.56;5030896;28;20073;-80
2021/10/13 09:33:15;;;;;;;15.73;10.93;;;;;;;8.58;78.47;101266.28;5013955;28;20046;-81
2021/10/13 09:35:53;;;;;;;14.80;10.68;;;;;;;8.49;78.28;101280.19;5034488;28;20037;-80
2021/10/13 09:38:20;;;;;;;12.30;9.43;;;;;;;8.42;78.17;101278.31;5020425;28;20104;-80
2021/10/13 09:40:47;;;;;;;14.15;9.80;;;;;;;8.59;77.36;101280.31;5001665;28;20030;-81
2021/10/13 09:43:36;;;;;;;12.85;9.30;;;;;;;8.80;76.68;101283.22;5014846;28;20036;-81
2021/10/13 09:46:14;;;;;;;12.93;9.73;;;;;;;8.80;77.79;101287.59;5032834;28;20049;-82
2021/10/13 09:48:41;;;;;;;15.23;10.63;;;;;;;8.95;76.20;101286.06;5016173;28;20038;-81
2021/10/13 09:51:21;;;;;;;13.75;9.77;;;;;;;9.10;75.53;101290.63;5018531;28;20127;-81
2021/10/13 09:53:49;;;;;;;12.63;8.77;;;;;;;9.19;76.06;101295.13;5042387;28;20097;-81
2021/10/13 09:56:33;;;;;;;12.80;9.90;;;;;;;9.23;76.13;101285.53;5021437;28;20041;-81
2021/10/13 09:59:15;;;;;;;12.77;8.23;;;;;;;9.35;75.47;101285.63;5018756;28;20049;-81
2021/10/13 10:01:57;;;;;;;14.13;8.65;;;;;;;9.65;74.10;101285.97;5032114;28;20030;-81
2021/10/13 10:04:25;;;;;;;13.80;8.82;;;;;;;9.82;73.29;101294.06;5020602;28;20090;-82
2021/10/13 10:06:57;;;;;;;12.75;8.68;;;;;;;9.88;71.52;101298.50;5019888;28;20038;-81
2021/10/13 10:09:24;;;;;;;12.40;7.10;;;;;;;9.63;72.71;101294.72;5032512;28;20034;-81
2021/10/13 10:12:02;;;;;;;13.43;8.15;;;;;;;9.59;71.71;101291.19;5020641;28;20052;-81
2021/10/13 10:14:35;;;;;;;12.27;8.43;;;;;;;9.64;71.99;101297.38;5015419;28;20057;-81
2021/10/13 10:17:02;;;;;;;12.93;9.07;;;;;;;9.68;72.79;101294.78;5028273;28;20057;-81
2021/10/13 10:19:30;;;;;;;13.25;9.05;;;;;;;9.74;72.21;101300.97;5013940;28;20043;-82
2021/10/13 10:22:10;;;;;;;15.52;9.35;;;;;;;9.61;73.50;101304.38;5018579;28;20029;-82
2021/10/13 10:24:37;;;;;;;14.23;9.43;;;;;;;9.92;73.07;101304.66;5014090;28;20034;-81
2021/10/13 10:27:25;;;;;;;15.27;9.25;;;;;;;10.13;71.65;101291.66;5011259;28;20117;-82
2021/10/13 10:30:09;;;;;;;13.88;9.25;;;;;;;9.96;71.57;101307.34;5006719;28;20038;-82
2021/10/13 10:32:52;;;;;;;13.27;9.25;;;;;;;9.81;71.54;101305.44;5026015;28;20044;-80
2021/10/13 10:35:18;;;;;;;14.90;9.07;;;;;;;9.77;71.25;101315.94;5010010;28;20034;-80
2021/10/13 10:37:48;;;;;;;14.43;9.35;;;;;;;9.89;71.47;101294.97;5006159;28;20097;-81
2021/10/13 10:40:19;;;;;;;14.73;9.68;;;;;;;9.97;70.73;101290.63;5010682;28;20488;-80
2021/10/13 10:42:51;;;;;;;13.50;9.23;;;;;;;9.76;69.82;101295.72;5009030;28;20042;-79
2021/10/13 10:45:28;;;;;;;12.32;9.43;;;;;;;9.67;70.36;101304.44;5011889;28;20041;-79
2021/10/13 10:48:04;;;;;;;13.38;9.23;;;;;;;9.58;70.95;101288.53;5009623;28;20069;-80
2021/10/13 10:50:38;;;;;;;14.25;8.88;;;;;;;9.55;71.33;101305.19;5004903;28;20033;-81
2021/10/13 10:53:19;;;;;;;14.18;8.48;;;;;;;9.69;71.15;101296.53;5027254;28;20034;-81
2021/10/13 10:55:46;;;;;;;12.73;9.23;;;;;;;9.77;71.32;101305.41;5006725;28;20030;-80
2021/10/13 10:58:24;;;;;;;13.80;9.43;;;;;;;9.86;72.23;101294.94;5024451;28;20038;-81
2021/10/13 11:01:05;;;;;;;14.40;10.25;;;;;;;9.91;71.95;101298.50;5005854;28;20030;-80
2021/10/13 11:03:36;;;;;;;12.25;8.93;;;;;;;9.92;71.07;101299.38;5025030;28;20065;-81
2021/10/13 11:06:13;;;;;;;12.18;8.52;;;;;;;10.00;71.06;101298.56;5008370;28;20113;-80
2021/10/13 11:09:02;;;;;;;14.32;9.18;;;;;;;10.01;69.89;101299.47;5006911;28;20038;-80
2021/10/13 11:11:30;;;;;;;14.02;9.40;;;;;;;10.03;70.71;101296.00;5005249;28;20125;-81
2021/10/13 11:14:01;;;;;;;14.13;9.50;;;;;;;10.23;69.68;101285.56;5005497;28;20100;-80
2021/10/13 11:16:28;;;;;;;13.63;10.00;;;;;;;10.36;70.70;101280.44;5007846;28;20037;-81
2021/10/13 11:18:54;;;;;;;17.65;10.75;;;;;;;10.57;69.49;101293.75;5005230;28;20042;-79
2021/10/13 11:21:19;;;;;;;12.95;10.25;;;;;;;10.66;67.53;101288.53;5007476;28;20033;-81
2021/10/13 11:23:46;;;;;;;13.40;9.70;;;;;;;10.62;67.02;101283.22;5005587;28;20404;-81
2021/10/13 11:26:11;;;;;;;13.57;9.50;;;;;;;10.61;66.00;101286.72;5013692;28;20433;-81
2021/10/13 11:28:38;;;;;;;11.40;8.88;;;;;;;11.14;65.33;101289.63;5006319;28;20042;-80
2021/10/13 11:31:06;;;;;;;14.05;9.32;;;;;;;11.40;64.92;101281.78;5008047;28;20579;-80
2021/10/13 11:33:31;;;;;;;13.65;9.07;;;;;;;11.63;63.92;101291.50;5005545;28;20185;-81